createdAt,value
2022-10-18T00:01:51.888Z,13.40
2022-10-18T00:04:54.847Z,13.57
2022-10-18T00:07:57.670Z,12.90
2022-10-18T00:11:00.389Z,13.70
2022-10-18T00:14:03.214Z,13.10
2022-10-18T00:17:06.029Z,13.05
2022-10-18T00:20:11.660Z,13.57
2022-10-18T00:23:14.499Z,14.18
2022-10-18T00:26:20.976Z,14.20
2022-10-18T00:29:24.104Z,13.83
2022-10-18T00:32:27.708Z,13.30
2022-10-18T00:35:30.664Z,14.88
2022-10-18T00:38:33.376Z,14.05
2022-10-18T00:41:38.284Z,13.80
2022-10-18T00:44:41.009Z,13.73
2022-10-18T00:47:48.208Z,13.27
2022-10-18T00:50:53.137Z,14.07
2022-10-18T00:53:55.848Z,14.00
2022-10-18T00:56:59.094Z,13.45
2022-10-18T01:00:02.620Z,13.03
2022-10-18T01:03:06.045Z,12.98
2022-10-18T01:06:09.658Z,12.80
2022-10-18T01:09:32.577Z,14.65
2022-10-18T01:12:56.879Z,13.93
2022-10-18T01:16:17.826Z,13.83
2022-10-18T01:19:46.938Z,14.40
2022-10-18T01:23:04.822Z,14.73
2022-10-18T01:26:29.400Z,14.48
2022-10-18T01:29:57.057Z,14.57
2022-10-18T01:33:11.463Z,14.13
2022-10-18T01:36:29.699Z,14.68
2022-10-18T01:39:38.372Z,14.68
2022-10-18T01:42:41.257Z,14.07
2022-10-18T01:45:44.035Z,13.95
2022-10-18T01:48:47.679Z,13.97
2022-10-18T01:51:50.709Z,14.25
2022-10-18T01:54:55.830Z,14.50
2022-10-18T01:58:28.181Z,13.93
2022-10-18T02:01:49.144Z,14.40
2022-10-18T02:04:59.212Z,14.37
2022-10-18T02:08:22.787Z,14.38
2022-10-18T02:11:29.699Z,14.35
2022-10-18T02:14:33.389Z,14.90
2022-10-18T02:17:37.993Z,14.02
2022-10-18T02:20:42.232Z,14.47
2022-10-18T02:23:46.956Z,14.20
2022-10-18T02:26:50.106Z,15.20
2022-10-18T02:29:53.307Z,15.93
2022-10-18T02:33:04.519Z,16.17
2022-10-18T02:36:18.373Z,15.70
2022-10-18T02:39:29.694Z,15.52
2022-10-18T02:42:37.509Z,15.13
2022-10-18T02:45:40.558Z,15.73
2022-10-18T02:48:43.321Z,15.47
2022-10-18T02:51:46.444Z,14.50
2022-10-18T02:54:49.155Z,15.25
2022-10-18T02:57:52.351Z,15.85
2022-10-18T03:00:58.269Z,16.00
2022-10-18T03:04:02.015Z,14.63
2022-10-18T03:07:04.882Z,15.07
2022-10-18T03:10:08.226Z,15.48
2022-10-18T03:13:11.072Z,15.27
2022-10-18T03:16:13.971Z,14.95
2022-10-18T03:19:16.757Z,14.57
2022-10-18T03:22:19.644Z,15.27
2022-10-18T03:25:22.412Z,15.50
2022-10-18T03:28:25.311Z,15.25
2022-10-18T03:31:28.369Z,14.65
2022-10-18T03:34:31.133Z,16.73
2022-10-18T03:37:34.026Z,16.93
2022-10-18T03:40:37.294Z,17.23
2022-10-18T03:43:40.508Z,15.10
2022-10-18T03:46:43.246Z,15.10
2022-10-18T03:49:46.028Z,15.27
2022-10-18T03:52:48.740Z,15.07
2022-10-18T03:55:53.086Z,15.50
2022-10-18T03:58:57.243Z,15.20
2022-10-18T04:02:00.226Z,15.32
2022-10-18T04:05:03.259Z,15.98
2022-10-18T04:08:06.071Z,15.40
2022-10-18T04:11:10.946Z,15.00
2022-10-18T04:14:13.835Z,14.88
2022-10-18T04:17:16.806Z,14.93
2022-10-18T04:20:20.278Z,16.83
2022-10-18T04:23:23.136Z,17.23
2022-10-18T04:26:26.179Z,16.75
2022-10-18T04:29:28.990Z,16.33
2022-10-18T04:32:31.895Z,15.93
2022-10-18T04:35:34.620Z,16.30
2022-10-18T04:38:37.371Z,15.37
2022-10-18T04:41:40.183Z,15.85
2022-10-18T04:44:43.006Z,15.60
2022-10-18T04:47:45.734Z,15.45
2022-10-18T04:50:49.998Z,16.05
2022-10-18T04:53:52.780Z,16.07
2022-10-18T04:56:55.727Z,17.35
2022-10-18T04:59:58.700Z,16.75
2022-10-18T05:03:01.420Z,16.98
2022-10-18T05:06:05.530Z,16.50
2022-10-18T05:09:08.492Z,17.07
2022-10-18T05:12:11.271Z,16.33
2022-10-18T05:15:14.138Z,17.98
2022-10-18T05:18:17.021Z,19.52
2022-10-18T05:21:19.869Z,18.70
2022-10-18T05:24:25.473Z,19.70
2022-10-18T05:27:30.621Z,19.88
2022-10-18T05:30:33.999Z,20.38
2022-10-18T05:33:37.785Z,18.67
2022-10-18T05:36:40.658Z,18.35
2022-10-18T05:39:43.525Z,17.97
2022-10-18T05:42:46.272Z,18.42
2022-10-18T05:45:50.397Z,17.10
2022-10-18T05:48:53.155Z,17.23
2022-10-18T05:51:58.886Z,16.97
2022-10-18T05:55:03.854Z,17.07
2022-10-18T05:58:06.924Z,17.85
2022-10-18T06:01:11.770Z,17.50
2022-10-18T06:04:14.939Z,17.77
2022-10-18T06:07:17.715Z,16.77
2022-10-18T06:10:23.522Z,15.83
2022-10-18T06:13:26.644Z,16.38
2022-10-18T06:16:32.397Z,16.77
2022-10-18T06:19:39.867Z,17.15
2022-10-18T06:22:43.883Z,17.33
2022-10-18T06:25:46.726Z,17.03
2022-10-18T06:28:50.511Z,16.63
2022-10-18T06:31:53.589Z,15.70
2022-10-18T06:35:03.230Z,17.08
2022-10-18T06:38:06.439Z,16.40
2022-10-18T06:41:10.446Z,17.07
2022-10-18T06:44:14.573Z,16.20
2022-10-18T06:47:17.412Z,14.68
2022-10-18T06:50:20.295Z,14.57
2022-10-18T06:53:25.547Z,14.75
2022-10-18T06:56:28.766Z,13.90
2022-10-18T06:59:31.885Z,14.55
2022-10-18T07:02:35.010Z,13.75
2022-10-18T07:05:38.518Z,13.13
2022-10-18T07:08:44.894Z,12.50
2022-10-18T07:11:48.034Z,12.60
2022-10-18T07:14:50.983Z,12.35
2022-10-18T07:17:53.736Z,12.27
2022-10-18T07:20:57.448Z,12.15
2022-10-18T07:24:00.242Z,12.45
2022-10-18T07:27:03.087Z,11.83
2022-10-18T07:30:07.814Z,12.18
2022-10-18T07:33:11.473Z,12.60
2022-10-18T07:36:15.888Z,12.50
2022-10-18T07:39:19.281Z,12.60
2022-10-18T07:42:22.380Z,12.47
2022-10-18T07:45:25.506Z,12.73
2022-10-18T07:48:28.934Z,11.82
2022-10-18T07:51:33.004Z,12.52
2022-10-18T07:54:35.916Z,12.93
2022-10-18T07:57:38.749Z,12.73
2022-10-18T08:00:42.154Z,12.85
2022-10-18T08:03:45.034Z,12.80
2022-10-18T08:06:47.953Z,13.55
2022-10-18T08:09:50.891Z,12.80
2022-10-18T08:12:54.519Z,14.70
2022-10-18T08:16:06.295Z,14.05
2022-10-18T08:19:09.172Z,14.23
2022-10-18T08:22:11.967Z,13.52
2022-10-18T08:25:15.639Z,12.75
2022-10-18T08:28:18.348Z,12.57
2022-10-18T08:31:21.162Z,11.65
2022-10-18T08:34:24.149Z,12.32
2022-10-18T08:37:27.010Z,12.13
2022-10-18T08:40:34.859Z,12.80
2022-10-18T08:43:47.337Z,12.03
2022-10-18T08:46:53.095Z,12.18
2022-10-18T08:50:07.707Z,11.65
2022-10-18T08:53:21.121Z,11.35
2022-10-18T08:56:27.946Z,11.65
2022-10-18T09:09:41.906Z,11.35
2022-10-18T09:13:55.099Z,11.52
2022-10-18T09:17:27.297Z,11.45
2022-10-18T09:21:00.245Z,9.80
2022-10-18T09:24:17.140Z,10.52
2022-10-18T09:27:22.718Z,10.77
2022-10-18T09:30:49.897Z,10.98
2022-10-18T09:34:06.349Z,10.48
2022-10-18T09:37:16.285Z,10.27
2022-10-18T09:40:26.893Z,10.23
2022-10-18T09:44:00.782Z,10.40
2022-10-18T09:47:16.853Z,10.27
2022-10-18T09:50:28.122Z,9.15
2022-10-18T09:53:37.103Z,9.33
2022-10-18T09:56:47.619Z,9.63
2022-10-18T09:59:55.057Z,9.20
2022-10-18T10:03:00.622Z,8.65
2022-10-18T10:06:16.809Z,9.35
2022-10-18T10:09:26.965Z,8.97
2022-10-18T10:12:32.698Z,8.60
2022-10-18T10:15:38.206Z,7.93
2022-10-18T10:18:43.879Z,7.80
2022-10-18T10:21:50.328Z,9.02
2022-10-18T10:24:54.984Z,8.27
2022-10-18T10:28:20.394Z,7.50
2022-10-18T10:31:46.035Z,7.20
2022-10-18T10:34:49.424Z,8.93
2022-10-18T10:37:54.652Z,8.50
2022-10-18T10:40:59.791Z,8.67
2022-10-18T10:44:08.848Z,8.23
2022-10-18T10:47:33.248Z,8.43
2022-10-18T10:50:54.413Z,8.27
2022-10-18T10:54:05.994Z,9.07
2022-10-18T10:57:12.749Z,7.93
2022-10-18T11:00:34.396Z,8.30
2022-10-18T11:03:37.435Z,7.30
2022-10-18T11:06:55.993Z,8.52
2022-10-18T11:10:12.848Z,7.55
2022-10-18T11:13:31.663Z,6.70
2022-10-18T11:17:07.698Z,7.03
2022-10-18T11:20:23.561Z,6.35
2022-10-18T11:23:32.374Z,7.07
2022-10-18T11:27:01.383Z,7.00
2022-10-18T11:30:35.087Z,6.83
2022-10-18T11:34:10.073Z,6.85
2022-10-18T11:38:06.451Z,7.15
2022-10-18T11:41:31.793Z,7.10
2022-10-18T11:45:02.951Z,6.80
2022-10-18T11:48:06.218Z,6.63
2022-10-18T11:51:34.169Z,6.53
2022-10-18T11:55:05.325Z,6.40
2022-10-18T11:58:18.445Z,7.05
2022-10-18T12:01:33.331Z,5.95
2022-10-18T12:04:53.062Z,6.23
2022-10-18T12:08:47.602Z,6.22
2022-10-18T12:12:02.757Z,5.88
2022-10-18T12:15:20.313Z,6.03
2022-10-18T12:18:30.407Z,5.70
2022-10-18T12:21:34.668Z,5.60
2022-10-18T12:24:38.037Z,5.93
2022-10-18T12:27:49.739Z,6.20
2022-10-18T12:31:27.269Z,5.53
2022-10-18T12:34:43.990Z,6.13
2022-10-18T12:38:00.133Z,5.67
2022-10-18T12:41:04.410Z,6.20
2022-10-18T12:44:25.669Z,5.85
2022-10-18T12:47:30.458Z,5.57
2022-10-18T12:50:37.790Z,6.00
2022-10-18T12:53:42.414Z,5.57
2022-10-18T12:56:47.705Z,5.60
2022-10-18T12:59:50.758Z,5.50
2022-10-18T13:03:19.135Z,5.68
2022-10-18T13:06:23.652Z,5.38
2022-10-18T13:09:30.988Z,5.77
2022-10-18T13:12:58.876Z,5.30
2022-10-18T13:16:24.025Z,5.00
2022-10-18T13:19:32.876Z,5.72
2022-10-18T13:23:08.294Z,5.68
2022-10-18T13:26:26.927Z,4.53
2022-10-18T13:29:40.979Z,5.05
2022-10-18T13:33:08.656Z,5.00
2022-10-18T13:36:22.583Z,5.18
2022-10-18T13:39:27.312Z,4.97
2022-10-18T13:42:33.007Z,4.43
2022-10-18T13:45:54.700Z,4.80
2022-10-18T13:49:06.629Z,4.75
2022-10-18T13:52:27.607Z,4.72
2022-10-18T13:56:11.835Z,5.10
2022-10-18T13:59:37.852Z,4.90
2022-10-18T14:02:58.694Z,4.85
2022-10-18T14:06:10.471Z,4.60
2022-10-18T14:12:50.095Z,4.70
2022-10-18T14:16:00.261Z,4.53
2022-10-18T14:19:15.159Z,4.38
2022-10-18T14:22:54.923Z,4.38
2022-10-18T14:26:15.106Z,4.80
2022-10-18T14:29:20.731Z,4.28
2022-10-18T14:32:29.387Z,4.60
2022-10-18T14:35:35.843Z,4.60
2022-10-18T14:39:06.314Z,4.50
2022-10-18T14:42:20.884Z,4.35
2022-10-18T14:45:24.502Z,4.30
2022-10-18T14:48:27.455Z,3.93
2022-10-18T14:51:35.701Z,5.30
2022-10-18T14:54:38.883Z,4.78
2022-10-18T14:57:41.792Z,5.20
2022-10-18T15:00:48.478Z,4.55
2022-10-18T15:03:57.529Z,5.20
2022-10-18T15:07:06.872Z,5.40
2022-10-18T15:10:35.297Z,5.05
2022-10-18T15:13:48.034Z,5.13
2022-10-18T15:16:54.223Z,5.35
2022-10-18T15:20:06.232Z,5.07
2022-10-18T15:23:24.019Z,4.85
2022-10-18T15:26:30.939Z,4.90
2022-10-18T15:29:36.879Z,5.40
2022-10-18T15:32:49.096Z,6.00
2022-10-18T15:35:54.098Z,5.63
2022-10-18T15:39:18.561Z,6.50
2022-10-18T15:42:38.441Z,5.65
2022-10-18T15:49:18.511Z,5.75
2022-10-18T15:52:37.487Z,6.67
2022-10-18T15:55:45.420Z,6.00
2022-10-18T15:58:49.071Z,6.18
2022-10-18T16:01:52.165Z,6.10
2022-10-18T16:04:55.474Z,6.50
2022-10-18T16:07:58.426Z,6.60
2022-10-18T16:11:01.201Z,7.22
2022-10-18T16:14:03.982Z,7.05
2022-10-18T16:17:07.428Z,8.75
2022-10-18T16:20:20.329Z,8.40
2022-10-18T16:23:26.676Z,12.40
2022-10-18T16:26:29.806Z,13.75
2022-10-18T16:29:33.394Z,12.80
2022-10-18T16:32:36.146Z,11.63
2022-10-18T16:35:38.987Z,12.88
2022-10-18T16:38:42.165Z,14.33
2022-10-18T16:41:45.683Z,13.40
2022-10-18T16:44:49.256Z,13.25
2022-10-18T16:47:52.063Z,13.80
2022-10-18T16:50:56.847Z,13.77
2022-10-18T16:53:59.616Z,12.40
2022-10-18T16:57:02.468Z,13.02
2022-10-18T17:00:05.572Z,16.58
2022-10-18T17:03:10.133Z,22.48
2022-10-18T17:06:22.313Z,20.80
2022-10-18T17:09:25.137Z,32.97
2022-10-18T17:12:28.041Z,28.85
2022-10-18T17:15:32.946Z,22.60
2022-10-18T17:18:37.936Z,23.73
2022-10-18T17:21:40.734Z,23.85
2022-10-18T17:24:43.470Z,16.40
2022-10-18T17:27:46.982Z,17.48
2022-10-18T17:30:56.905Z,24.73
2022-10-18T17:34:02.172Z,28.95
2022-10-18T17:37:05.703Z,31.08
2022-10-18T17:40:09.874Z,39.93
2022-10-18T17:43:14.017Z,43.50
2022-10-18T17:46:18.001Z,40.03
2022-10-18T17:49:22.262Z,38.30
2022-10-18T17:52:25.246Z,36.05
2022-10-18T17:55:30.288Z,36.10
2022-10-18T17:58:33.529Z,34.20
2022-10-18T18:01:36.521Z,33.13
2022-10-18T18:04:39.380Z,34.92
2022-10-18T18:07:42.374Z,33.10
2022-10-18T18:10:45.375Z,28.57
2022-10-18T18:13:48.228Z,30.38
2022-10-18T18:16:51.216Z,27.17
2022-10-18T18:19:54.310Z,26.33
2022-10-18T18:22:57.096Z,28.85
2022-10-18T18:26:00.891Z,28.40
2022-10-18T18:29:04.181Z,28.65
2022-10-18T18:32:08.163Z,30.25
2022-10-18T18:35:11.893Z,30.55
2022-10-18T18:38:14.764Z,29.15
2022-10-18T18:41:23.210Z,29.77
2022-10-18T18:44:26.052Z,32.92
2022-10-18T18:47:28.839Z,55.40
2022-10-18T18:50:32.026Z,106.57
2022-10-18T18:53:35.124Z,95.15
2022-10-18T18:56:38.285Z,80.50
2022-10-18T18:59:41.247Z,83.93
2022-10-18T19:02:44.054Z,74.72
2022-10-18T19:05:46.841Z,80.63
2022-10-18T19:08:50.391Z,82.90
2022-10-18T19:11:55.698Z,89.73
2022-10-18T19:14:58.409Z,73.25
2022-10-18T19:18:01.273Z,61.88
2022-10-18T19:21:04.240Z,51.70
2022-10-18T19:24:07.575Z,48.33
2022-10-18T19:27:14.375Z,43.60
2022-10-18T19:30:19.929Z,38.70
2022-10-18T19:33:41.144Z,34.55
2022-10-18T19:36:48.867Z,30.52
2022-10-18T19:39:51.751Z,27.00
2022-10-18T19:42:54.511Z,23.57
2022-10-18T19:46:02.752Z,21.88
2022-10-18T19:49:05.786Z,22.08
2022-10-18T19:52:08.971Z,20.15
2022-10-18T19:55:11.824Z,19.52
2022-10-18T19:58:14.711Z,19.40
2022-10-18T20:01:18.700Z,19.20
2022-10-18T20:04:21.854Z,19.17
2022-10-18T20:07:24.704Z,19.40
2022-10-18T20:10:31.057Z,20.95
2022-10-18T20:13:34.130Z,23.27
2022-10-18T20:16:37.144Z,20.95
2022-10-18T20:19:40.021Z,19.02
2022-10-18T20:22:42.733Z,17.35
2022-10-18T20:25:58.604Z,14.45
2022-10-18T20:29:01.590Z,15.43
2022-10-18T20:32:04.537Z,15.48
2022-10-18T20:35:07.455Z,14.70
2022-10-18T20:38:10.321Z,14.50
2022-10-18T20:41:22.757Z,14.40
2022-10-18T20:44:27.005Z,14.50
2022-10-18T20:47:30.423Z,14.73
2022-10-18T20:50:33.963Z,15.07
2022-10-18T20:53:37.677Z,16.27
2022-10-18T20:56:40.500Z,15.45
2022-10-18T20:59:43.246Z,17.07
2022-10-18T21:02:46.019Z,18.75
2022-10-18T21:05:48.829Z,17.58
2022-10-18T21:08:57.005Z,16.52
2022-10-18T21:12:00.057Z,16.10
2022-10-18T21:15:02.876Z,16.80
2022-10-18T21:18:06.633Z,20.88
2022-10-18T21:21:16.168Z,28.30
2022-10-18T21:24:20.000Z,30.88
2022-10-18T21:27:25.931Z,30.37
2022-10-18T21:30:29.121Z,27.53
2022-10-18T21:33:31.862Z,27.25
2022-10-18T21:36:36.638Z,30.98
2022-10-18T21:39:39.350Z,29.20
2022-10-18T21:42:42.137Z,28.00
2022-10-18T21:45:44.934Z,28.43
2022-10-18T21:48:51.661Z,28.77
2022-10-18T21:51:54.483Z,29.90
2022-10-18T21:54:57.280Z,29.60
2022-10-18T21:58:00.108Z,30.10
2022-10-18T22:01:23.874Z,27.73
2022-10-18T22:04:26.735Z,26.65
2022-10-18T22:07:29.456Z,27.13
2022-10-18T22:10:33.577Z,26.77
2022-10-18T22:13:36.348Z,25.95
2022-10-18T22:16:39.335Z,24.87
2022-10-18T22:19:43.592Z,25.88
2022-10-18T22:22:46.552Z,23.38
2022-10-18T22:25:50.407Z,24.13
2022-10-18T22:29:02.387Z,22.00
2022-10-18T22:32:05.332Z,21.10
2022-10-18T22:35:08.101Z,21.08
2022-10-18T22:38:10.789Z,22.05
2022-10-18T22:41:13.842Z,21.35
2022-10-18T22:44:16.725Z,23.50
2022-10-18T22:47:19.550Z,23.20
2022-10-18T22:50:23.202Z,23.00
2022-10-18T22:53:27.115Z,22.95
2022-10-18T22:56:30.105Z,22.13
2022-10-18T22:59:33.524Z,22.83
2022-10-18T23:02:36.549Z,24.77
2022-10-18T23:05:41.058Z,28.50
2022-10-18T23:08:43.940Z,28.38
2022-10-18T23:11:48.303Z,31.85
2022-10-18T23:14:51.246Z,31.02
2022-10-18T23:17:55.050Z,28.77
2022-10-18T23:21:07.415Z,23.65
2022-10-18T23:24:10.248Z,22.33
2022-10-18T23:27:13.022Z,20.55
2022-10-18T23:30:25.363Z,18.40
2022-10-18T23:33:28.100Z,17.43
2022-10-18T23:36:33.163Z,17.67
2022-10-18T23:39:35.965Z,15.43
2022-10-18T23:42:38.949Z,14.38
2022-10-18T23:45:42.593Z,14.13
2022-10-18T23:48:46.362Z,13.27
2022-10-18T23:51:49.229Z,12.80
2022-10-18T23:54:51.918Z,12.82
2022-10-18T23:57:54.684Z,13.10
